sensor_id;sensor_type;location;lat;lon;timestamp;pressure;altitude;pressure_sealevel;temperature;humidity
63204;BME280;49297;43.210;27.914;2024-03-08T00:00:17;101544.25;;;7.33;73.98
63204;BME280;49297;43.210;27.914;2024-03-08T00:03:02;101541.91;;;7.28;74.38
63204;BME280;49297;43.210;27.914;2024-03-08T00:05:29;101531.34;;;7.28;74.14
63204;BME280;49297;43.210;27.914;2024-03-08T00:07:55;101537.47;;;7.29;73.93
63204;BME280;49297;43.210;27.914;2024-03-08T00:10:20;101529.56;;;7.29;74.38
63204;BME280;49297;43.210;27.914;2024-03-08T00:12:46;101522.72;;;7.26;74.04
63204;BME280;49297;43.210;27.914;2024-03-08T00:15:12;101527.00;;;7.27;73.97
63204;BME280;49297;43.210;27.914;2024-03-08T00:17:39;101513.97;;;7.26;74.03
63204;BME280;49297;43.210;27.914;2024-03-08T00:20:08;101513.41;;;7.20;74.04
63204;BME280;49297;43.210;27.914;2024-03-08T00:22:40;101505.59;;;7.19;74.07
63204;BME280;49297;43.210;27.914;2024-03-08T00:25:06;101502.13;;;7.18;73.24
63204;BME280;49297;43.210;27.914;2024-03-08T00:27:37;101498.63;;;7.18;73.58
63204;BME280;49297;43.210;27.914;2024-03-08T00:30:07;101500.69;;;7.13;73.63
63204;BME280;49297;43.210;27.914;2024-03-08T00:32:33;101505.13;;;7.12;73.82
63204;BME280;49297;43.210;27.914;2024-03-08T00:34:59;101499.78;;;7.14;73.98
63204;BME280;49297;43.210;27.914;2024-03-08T00:37:24;101499.88;;;7.12;73.71
63204;BME280;49297;43.210;27.914;2024-03-08T00:39:51;101494.88;;;7.08;74.16
63204;BME280;49297;43.210;27.914;2024-03-08T00:42:35;101492.06;;;7.11;74.09
63204;BME280;49297;43.210;27.914;2024-03-08T00:45:02;101493.00;;;7.10;74.43
63204;BME280;49297;43.210;27.914;2024-03-08T00:47:28;101491.41;;;7.07;74.69
63204;BME280;49297;43.210;27.914;2024-03-08T00:49:54;101487.09;;;7.06;74.28
63204;BME280;49297;43.210;27.914;2024-03-08T00:52:23;101487.94;;;7.07;74.02
63204;BME280;49297;43.210;27.914;2024-03-08T00:54:49;101494.03;;;7.07;73.95
63204;BME280;49297;43.210;27.914;2024-03-08T00:57:15;101494.13;;;7.05;74.47
63204;BME280;49297;43.210;27.914;2024-03-08T00:59:41;101495.09;;;7.04;73.96
63204;BME280;49297;43.210;27.914;2024-03-08T01:02:07;101489.91;;;7.03;74.16
63204;BME280;49297;43.210;27.914;2024-03-08T01:04:34;101501.28;;;7.03;74.33
63204;BME280;49297;43.210;27.914;2024-03-08T01:06:59;101498.56;;;7.05;74.17
63204;BME280;49297;43.210;27.914;2024-03-08T01:09:25;101494.44;;;7.01;74.31
63204;BME280;49297;43.210;27.914;2024-03-08T01:11:53;101492.81;;;6.98;74.41
63204;BME280;49297;43.210;27.914;2024-03-08T01:14:26;101490.09;;;7.00;74.36
63204;BME280;49297;43.210;27.914;2024-03-08T01:16:51;101494.53;;;6.99;73.90
63204;BME280;49297;43.210;27.914;2024-03-08T01:19:17;101488.41;;;6.99;73.71
63204;BME280;49297;43.210;27.914;2024-03-08T01:21:43;101483.16;;;6.99;74.10
63204;BME280;49297;43.210;27.914;2024-03-08T01:24:08;101489.16;;;7.01;74.22
63204;BME280;49297;43.210;27.914;2024-03-08T01:26:53;101487.56;;;6.98;74.21
63204;BME280;49297;43.210;27.914;2024-03-08T01:29:18;101491.88;;;6.99;74.23
63204;BME280;49297;43.210;27.914;2024-03-08T01:31:44;101493.56;;;7.00;74.22
63204;BME280;49297;43.210;27.914;2024-03-08T01:34:09;101500.94;;;6.95;73.63
63204;BME280;49297;43.210;27.914;2024-03-08T01:36:35;101500.94;;;6.95;74.00
63204;BME280;49297;43.210;27.914;2024-03-08T01:39:02;101498.47;;;6.92;73.72
63204;BME280;49297;43.210;27.914;2024-03-08T01:41:33;101500.38;;;6.90;73.51
63204;BME280;49297;43.210;27.914;2024-03-08T01:44:01;101503.00;;;6.90;73.76
63204;BME280;49297;43.210;27.914;2024-03-08T01:46:27;101498.47;;;6.92;73.57
63204;BME280;49297;43.210;27.914;2024-03-08T01:48:54;101506.28;;;6.94;73.43
63204;BME280;49297;43.210;27.914;2024-03-08T01:51:20;101495.84;;;6.92;73.06
63204;BME280;49297;43.210;27.914;2024-03-08T01:53:47;101498.47;;;6.92;73.68
63204;BME280;49297;43.210;27.914;2024-03-08T01:56:13;101499.97;;;6.96;73.35
63204;BME280;49297;43.210;27.914;2024-03-08T01:58:40;101507.88;;;6.96;73.35
63204;BME280;49297;43.210;27.914;2024-03-08T02:01:10;101504.50;;;6.94;73.48
63204;BME280;49297;43.210;27.914;2024-03-08T02:03:36;101510.59;;;6.95;73.34
63204;BME280;49297;43.210;27.914;2024-03-08T02:06:01;101508.06;;;6.93;73.38
63204;BME280;49297;43.210;27.914;2024-03-08T02:08:28;101504.59;;;6.93;73.07
63204;BME280;49297;43.210;27.914;2024-03-08T02:10:54;101500.28;;;6.92;73.28
63204;BME280;49297;43.210;27.914;2024-03-08T02:13:20;101513.31;;;6.93;72.80
63204;BME280;49297;43.210;27.914;2024-03-08T02:18:15;101502.25;;;6.88;72.16
63204;BME280;49297;43.210;27.914;2024-03-08T02:20:42;101507.59;;;6.86;72.13
63204;BME280;49297;43.210;27.914;2024-03-08T02:23:08;101494.88;;;6.79;72.25
63204;BME280;49297;43.210;27.914;2024-03-08T02:25:34;101490.69;;;6.76;71.98
63204;BME280;49297;43.210;27.914;2024-03-08T02:28:00;101498.56;;;6.76;72.33
63204;BME280;49297;43.210;27.914;2024-03-08T02:30:25;101499.41;;;6.77;72.40
63204;BME280;49297;43.210;27.914;2024-03-08T02:32:55;101503.75;;;6.78;72.50
63204;BME280;49297;43.210;27.914;2024-03-08T02:35:21;101501.19;;;6.76;72.47
63204;BME280;49297;43.210;27.914;2024-03-08T02:37:47;101503.09;;;6.74;72.21
63204;BME280;49297;43.210;27.914;2024-03-08T02:40:13;101504.97;;;6.72;72.32
63204;BME280;49297;43.210;27.914;2024-03-08T02:42:39;101507.47;;;6.74;72.17
63204;BME280;49297;43.210;27.914;2024-03-08T02:45:05;101516.34;;;6.73;72.35
63204;BME280;49297;43.210;27.914;2024-03-08T02:47:31;101518.13;;;6.72;71.81
63204;BME280;49297;43.210;27.914;2024-03-08T02:49:56;101514.84;;;6.69;72.33
63204;BME280;49297;43.210;27.914;2024-03-08T02:52:22;101515.69;;;6.69;72.34
63204;BME280;49297;43.210;27.914;2024-03-08T02:54:48;101521.13;;;6.66;72.02
63204;BME280;49297;43.210;27.914;2024-03-08T02:57:14;101516.59;;;6.68;72.58
63204;BME280;49297;43.210;27.914;2024-03-08T02:59:40;101516.50;;;6.70;72.74
63204;BME280;49297;43.210;27.914;2024-03-08T03:02:05;101521.69;;;6.71;72.24
63204;BME280;49297;43.210;27.914;2024-03-08T03:04:32;101524.31;;;6.71;72.20
63204;BME280;49297;43.210;27.914;2024-03-08T03:07:01;101526.19;;;6.69;72.15
63204;BME280;49297;43.210;27.914;2024-03-08T03:09:26;101522.72;;;6.69;72.16
63204;BME280;49297;43.210;27.914;2024-03-08T03:11:53;101516.81;;;6.65;72.31
63204;BME280;49297;43.210;27.914;2024-03-08T03:14:20;101515.94;;;6.64;72.11
63204;BME280;49297;43.210;27.914;2024-03-08T03:16:47;101519.31;;;6.66;71.93
63204;BME280;49297;43.210;27.914;2024-03-08T03:19:13;101512.22;;;6.69;72.81
63204;BME280;49297;43.210;27.914;2024-03-08T03:21:40;101509.66;;;6.67;72.44
63204;BME280;49297;43.210;27.914;2024-03-08T03:24:08;101507.88;;;6.67;72.29
63204;BME280;49297;43.210;27.914;2024-03-08T03:26:36;101513.31;;;6.64;72.73
63204;BME280;49297;43.210;27.914;2024-03-08T03:29:04;101509.09;;;6.62;72.70
63204;BME280;49297;43.210;27.914;2024-03-08T03:31:31;101518.78;;;6.61;72.58
63204;BME280;49297;43.210;27.914;2024-03-08T03:33:57;101512.75;;;6.59;72.05
63204;BME280;49297;43.210;27.914;2024-03-08T03:36:34;101512.84;;;6.58;72.42
63204;BME280;49297;43.210;27.914;2024-03-08T03:39:00;101512.75;;;6.59;72.33
63204;BME280;49297;43.210;27.914;2024-03-08T03:41:38;101520.63;;;6.59;72.72
63204;BME280;49297;43.210;27.914;2024-03-08T03:44:04;101507.69;;;6.56;72.68
63204;BME280;49297;43.210;27.914;2024-03-08T03:46:30;101515.56;;;6.56;72.41
63204;BME280;49297;43.210;27.914;2024-03-08T03:48:56;101510.66;;;6.50;72.41
63204;BME280;49297;43.210;27.914;2024-03-08T03:51:21;101507.19;;;6.50;72.00
63204;BME280;49297;43.210;27.914;2024-03-08T03:53:47;101516.00;;;6.48;71.99
63204;BME280;49297;43.210;27.914;2024-03-08T03:56:12;101508.03;;;6.50;72.37
63204;BME280;49297;43.210;27.914;2024-03-08T03:58:38;101514.25;;;6.49;72.33
63204;BME280;49297;43.210;27.914;2024-03-08T04:01:05;101516.09;;;6.47;72.00
63204;BME280;49297;43.210;27.914;2024-03-08T04:03:30;101515.25;;;6.46;72.61
63204;BME280;49297;43.210;27.914;2024-03-08T04:05:56;101516.09;;;6.47;72.20
63204;BME280;49297;43.210;27.914;2024-03-08T04:08:22;101510.97;;;6.45;72.23
63204;BME280;49297;43.210;27.914;2024-03-08T04:10:49;101524.94;;;6.46;72.23
63204;BME280;49297;43.210;27.914;2024-03-08T04:13:15;101521.56;;;6.44;72.34
63204;BME280;49297;43.210;27.914;2024-03-08T04:15:41;101511.88;;;6.44;72.45
63204;BME280;49297;43.210;27.914;2024-03-08T04:18:09;101522.31;;;6.46;72.35
63204;BME280;49297;43.210;27.914;2024-03-08T04:20:35;101522.31;;;6.46;72.05
63204;BME280;49297;43.210;27.914;2024-03-08T04:23:04;101522.31;;;6.46;72.13
63204;BME280;49297;43.210;27.914;2024-03-08T04:25:29;101523.06;;;6.48;71.95
63204;BME280;49297;43.210;27.914;2024-03-08T04:27:56;101521.28;;;6.48;72.28
63204;BME280;49297;43.210;27.914;2024-03-08T04:30:21;101515.19;;;6.48;72.38
63204;BME280;49297;43.210;27.914;2024-03-08T04:32:47;101518.72;;;6.47;72.34
63204;BME280;49297;43.210;27.914;2024-03-08T04:35:12;101508.59;;;6.41;72.61
63204;BME280;49297;43.210;27.914;2024-03-08T04:37:38;101516.47;;;6.41;72.41
63204;BME280;49297;43.210;27.914;2024-03-08T04:40:04;101511.22;;;6.41;72.08
63204;BME280;49297;43.210;27.914;2024-03-08T04:42:33;101522.66;;;6.40;72.19
63204;BME280;49297;43.210;27.914;2024-03-08T04:44:59;101518.44;;;6.37;72.09
63204;BME280;49297;43.210;27.914;2024-03-08T04:47:26;101516.19;;;6.31;72.42
63204;BME280;49297;43.210;27.914;2024-03-08T04:49:51;101519.66;;;6.32;72.31
63204;BME280;49297;43.210;27.914;2024-03-08T04:52:17;101518.91;;;6.29;72.38
63204;BME280;49297;43.210;27.914;2024-03-08T04:54:43;101511.94;;;6.28;72.34
63204;BME280;49297;43.210;27.914;2024-03-08T04:57:09;101525.75;;;6.32;72.44
63204;BME280;49297;43.210;27.914;2024-03-08T04:59:36;101522.97;;;6.35;72.56
63204;BME280;49297;43.210;27.914;2024-03-08T05:02:01;101528.22;;;6.35;72.52
63204;BME280;49297;43.210;27.914;2024-03-08T05:04:27;101522.19;;;6.33;72.65
63204;BME280;49297;43.210;27.914;2024-03-08T05:06:54;101524.84;;;6.33;72.50
63204;BME280;49297;43.210;27.914;2024-03-08T05:09:20;101540.63;;;6.33;72.61
63204;BME280;49297;43.210;27.914;2024-03-08T05:11:46;101532.81;;;6.32;72.68
63204;BME280;49297;43.210;27.914;2024-03-08T05:14:12;101535.34;;;6.33;72.61
63204;BME280;49297;43.210;27.914;2024-03-08T05:16:42;101541.53;;;6.32;72.71
63204;BME280;49297;43.210;27.914;2024-03-08T05:19:08;101537.22;;;6.31;73.02
63204;BME280;49297;43.210;27.914;2024-03-08T05:21:33;101544.00;;;6.35;72.92
63204;BME280;49297;43.210;27.914;2024-03-08T05:23:59;101538.66;;;6.37;73.05
63204;BME280;49297;43.210;27.914;2024-03-08T05:26:24;101542.88;;;6.39;72.94
63204;BME280;49297;43.210;27.914;2024-03-08T05:28:50;101555.34;;;6.36;73.06
63204;BME280;49297;43.210;27.914;2024-03-08T05:31:19;101548.50;;;6.33;73.31
63204;BME280;49297;43.210;27.914;2024-03-08T05:33:47;101549.59;;;6.29;73.12
63204;BME280;49297;43.210;27.914;2024-03-08T05:36:13;101555.81;;;6.28;73.08
63204;BME280;49297;43.210;27.914;2024-03-08T05:38:42;101553.00;;;6.31;73.24
63204;BME280;49297;43.210;27.914;2024-03-08T05:41:14;101559.94;;;6.32;73.45
63204;BME280;49297;43.210;27.914;2024-03-08T05:43:43;101563.63;;;6.29;73.94
63204;BME280;49297;43.210;27.914;2024-03-08T05:46:09;101564.53;;;6.28;73.62
63204;BME280;49297;43.210;27.914;2024-03-08T05:48:37;101570.75;;;6.27;73.70
63204;BME280;49297;43.210;27.914;2024-03-08T05:51:03;101578.66;;;6.27;73.68
63204;BME280;49297;43.210;27.914;2024-03-08T05:53:28;101576.00;;;6.27;73.84
63204;BME280;49297;43.210;27.914;2024-03-08T05:55:57;101571.59;;;6.28;73.82
63204;BME280;49297;43.210;27.914;2024-03-08T05:58:24;101578.44;;;6.31;74.12
63204;BME280;49297;43.210;27.914;2024-03-08T06:00:52;101574.97;;;6.30;74.12
63204;BME280;49297;43.210;27.914;2024-03-08T06:03:17;101578.28;;;6.34;74.16
63204;BME280;49297;43.210;27.914;2024-03-08T06:05:48;101580.81;;;6.35;74.18
63204;BME280;49297;43.210;27.914;2024-03-08T06:08:14;101586.00;;;6.37;74.56
63204;BME280;49297;43.210;27.914;2024-03-08T06:10:40;101577.25;;;6.36;74.71
63204;BME280;49297;43.210;27.914;2024-03-08T06:13:06;101585.13;;;6.36;74.41
63204;BME280;49297;43.210;27.914;2024-03-08T06:15:32;101589.38;;;6.39;74.54
63204;BME280;49297;43.210;27.914;2024-03-08T06:17:58;101597.34;;;6.37;74.56
63204;BME280;49297;43.210;27.914;2024-03-08T06:20:23;101589.47;;;6.37;74.74
63204;BME280;49297;43.210;27.914;2024-03-08T06:22:52;101588.44;;;6.40;74.96
63204;BME280;49297;43.210;27.914;2024-03-08T06:25:17;101587.50;;;6.41;74.78
63204;BME280;49297;43.210;27.914;2024-03-08T06:27:43;101598.03;;;6.41;74.89
63204;BME280;49297;43.210;27.914;2024-03-08T06:30:09;101599.72;;;6.42;75.07
63204;BME280;49297;43.210;27.914;2024-03-08T06:32:38;101599.63;;;6.43;75.10
63204;BME280;49297;43.210;27.914;2024-03-08T06:35:04;101600.28;;;6.47;75.13
63204;BME280;49297;43.210;27.914;2024-03-08T06:37:32;101598.34;;;6.51;74.98
63204;BME280;49297;43.210;27.914;2024-03-08T06:39:57;101593.94;;;6.51;75.24
63204;BME280;49297;43.210;27.914;2024-03-08T06:42:23;101597.31;;;6.53;75.40
63204;BME280;49297;43.210;27.914;2024-03-08T06:44:49;101593.75;;;6.54;75.47
63204;BME280;49297;43.210;27.914;2024-03-08T06:47:15;101595.53;;;6.54;75.20
63204;BME280;49297;43.210;27.914;2024-03-08T06:49:44;101600.78;;;6.54;75.41
63204;BME280;49297;43.210;27.914;2024-03-08T06:52:11;101601.44;;;6.57;75.49
63204;BME280;49297;43.210;27.914;2024-03-08T06:54:37;101606.53;;;6.60;75.66
63204;BME280;49297;43.210;27.914;2024-03-08T06:57:03;101601.38;;;6.59;75.04
63204;BME280;49297;43.210;27.914;2024-03-08T06:59:33;101602.88;;;6.63;75.39
63204;BME280;49297;43.210;27.914;2024-03-08T07:02:01;101605.41;;;6.64;75.40
63204;BME280;49297;43.210;27.914;2024-03-08T07:04:26;101598.28;;;6.66;75.52
63204;BME280;49297;43.210;27.914;2024-03-08T07:06:55;101599.97;;;6.67;75.54
63204;BME280;49297;43.210;27.914;2024-03-08T07:09:21;101596.50;;;6.67;75.38
63204;BME280;49297;43.210;27.914;2024-03-08T07:11:51;101595.38;;;6.71;75.31
63204;BME280;49297;43.210;27.914;2024-03-08T07:14:22;101591.63;;;6.75;75.35
63204;BME280;49297;43.210;27.914;2024-03-08T07:16:48;101594.25;;;6.75;75.17
63204;BME280;49297;43.210;27.914;2024-03-08T07:19:14;101600.38;;;6.76;74.80
63204;BME280;49297;43.210;27.914;2024-03-08T07:21:43;101601.88;;;6.80;74.88
63204;BME280;49297;43.210;27.914;2024-03-08T07:24:10;101602.28;;;6.88;74.57
63204;BME280;49297;43.210;27.914;2024-03-08T07:26:44;101603.59;;;6.95;75.08
63204;BME280;49297;43.210;27.914;2024-03-08T07:29:15;101600.31;;;7.06;75.17
63204;BME280;49297;43.210;27.914;2024-03-08T07:31:40;101599.66;;;7.17;74.90
63204;BME280;49297;43.210;27.914;2024-03-08T07:34:25;101603.41;;;7.13;74.77
63204;BME280;49297;43.210;27.914;2024-03-08T07:36:51;101603.03;;;7.04;74.50
63204;BME280;49297;43.210;27.914;2024-03-08T07:41:46;101605.09;;;6.99;74.32
63204;BME280;49297;43.210;27.914;2024-03-08T07:44:14;101611.13;;;7.01;74.40
63204;BME280;49297;43.210;27.914;2024-03-08T07:46:40;101608.50;;;7.01;74.52
63204;BME280;49297;43.210;27.914;2024-03-08T07:49:07;101611.97;;;7.02;74.57
63204;BME280;49297;43.210;27.914;2024-03-08T07:51:36;101599.66;;;7.02;73.98
63204;BME280;49297;43.210;27.914;2024-03-08T07:54:02;101601.50;;;7.00;74.12
63204;BME280;49297;43.210;27.914;2024-03-08T07:56:30;101604.72;;;7.05;74.49
63204;BME280;49297;43.210;27.914;2024-03-08T07:58:56;101607.00;;;7.12;74.17
63204;BME280;49297;43.210;27.914;2024-03-08T08:01:22;101604.94;;;7.17;74.44
63204;BME280;49297;43.210;27.914;2024-03-08T08:03:48;101606.44;;;7.21;74.03
63204;BME280;49297;43.210;27.914;2024-03-08T08:06:17;101607.00;;;7.26;73.61
63204;BME280;49297;43.210;27.914;2024-03-08T08:08:43;101604.84;;;7.33;73.93
63204;BME280;49297;43.210;27.914;2024-03-08T08:11:09;101602.88;;;7.36;74.36
63204;BME280;49297;43.210;27.914;2024-03-08T08:13:34;101606.91;;;7.42;73.81
63204;BME280;49297;43.210;27.914;2024-03-08T08:16:02;101606.81;;;7.43;73.25
63204;BME280;49297;43.210;27.914;2024-03-08T08:18:29;101616.38;;;7.44;73.38
63204;BME280;49297;43.210;27.914;2024-03-08T08:20:55;101614.63;;;7.45;73.19
63204;BME280;49297;43.210;27.914;2024-03-08T08:23:22;101606.81;;;7.43;73.81
63204;BME280;49297;43.210;27.914;2024-03-08T08:25:48;101607.91;;;7.39;73.68
63204;BME280;49297;43.210;27.914;2024-03-08T08:28:16;101615.00;;;7.39;73.50
63204;BME280;49297;43.210;27.914;2024-03-08T08:30:43;101606.25;;;7.38;73.23
63204;BME280;49297;43.210;27.914;2024-03-08T08:33:10;101606.34;;;7.37;73.91
63204;BME280;49297;43.210;27.914;2024-03-08T08:35:37;101607.19;;;7.37;74.07
63204;BME280;49297;43.210;27.914;2024-03-08T08:38:03;101607.75;;;7.42;73.41
63204;BME280;49297;43.210;27.914;2024-03-08T08:40:29;101605.84;;;7.44;73.96
63204;BME280;49297;43.210;27.914;2024-03-08T08:42:57;101613.31;;;7.52;73.94
63204;BME280;49297;43.210;27.914;2024-03-08T08:45:24;101607.81;;;7.55;73.64
63204;BME280;49297;43.210;27.914;2024-03-08T08:47:50;101611.75;;;7.62;73.48
63204;BME280;49297;43.210;27.914;2024-03-08T08:50:15;101605.16;;;7.70;72.98
63204;BME280;49297;43.210;27.914;2024-03-08T08:52:41;101607.41;;;7.76;73.87
63204;BME280;49297;43.210;27.914;2024-03-08T08:55:10;101612.28;;;7.82;73.97
63204;BME280;49297;43.210;27.914;2024-03-08T08:57:42;101609.47;;;7.85;73.73
63204;BME280;49297;43.210;27.914;2024-03-08T09:00:09;101613.59;;;7.89;73.04
63204;BME280;49297;43.210;27.914;2024-03-08T09:02:40;101617.19;;;7.88;73.01
63204;BME280;49297;43.210;27.914;2024-03-08T09:05:06;101609.06;;;7.91;73.32
63204;BME280;49297;43.210;27.914;2024-03-08T09:07:37;101614.13;;;7.94;72.99
63204;BME280;49297;43.210;27.914;2024-03-08T09:10:04;101611.41;;;7.96;73.27
63204;BME280;49297;43.210;27.914;2024-03-08T09:12:29;101612.88;;;8.00;73.35
63204;BME280;49297;43.210;27.914;2024-03-08T09:14:59;101610.72;;;8.07;73.31
63204;BME280;49297;43.210;27.914;2024-03-08T09:17:24;101607.88;;;8.10;72.86
63204;BME280;49297;43.210;27.914;2024-03-08T09:19:51;101614.09;;;8.09;72.40
63204;BME280;49297;43.210;27.914;2024-03-08T09:22:18;101611.53;;;8.07;72.45
63204;BME280;49297;43.210;27.914;2024-03-08T09:24:44;101609.56;;;8.11;72.83
63204;BME280;49297;43.210;27.914;2024-03-08T09:27:10;101617.38;;;8.12;72.78
63204;BME280;49297;43.210;27.914;2024-03-08T09:29:37;101619.09;;;8.13;72.90
63204;BME280;49297;43.210;27.914;2024-03-08T09:32:03;101621.72;;;8.13;72.42
63204;BME280;49297;43.210;27.914;2024-03-08T09:34:31;101620.66;;;8.16;72.78
63204;BME280;49297;43.210;27.914;2024-03-08T09:36:57;101618.97;;;8.15;73.10
63204;BME280;49297;43.210;27.914;2024-03-08T09:39:24;101618.97;;;8.15;72.93
63204;BME280;49297;43.210;27.914;2024-03-08T09:41:49;101616.25;;;8.16;72.70
63204;BME280;49297;43.210;27.914;2024-03-08T09:44:18;101628.19;;;8.22;72.75
63204;BME280;49297;43.210;27.914;2024-03-08T09:46:51;101621.94;;;8.23;72.61
63204;BME280;49297;43.210;27.914;2024-03-08T09:49:18;101626.69;;;8.18;71.79
63204;BME280;49297;43.210;27.914;2024-03-08T09:51:43;101621.53;;;8.16;71.76
63204;BME280;49297;43.210;27.914;2024-03-08T09:54:11;101624.16;;;8.16;72.15
63204;BME280;49297;43.210;27.914;2024-03-08T09:56:36;101621.22;;;8.21;72.08
63204;BME280;49297;43.210;27.914;2024-03-08T09:59:03;101615.56;;;8.27;71.31
63204;BME280;49297;43.210;27.914;2024-03-08T10:01:50;101630.13;;;8.33;71.22
63204;BME280;49297;43.210;27.914;2024-03-08T10:04:18;101620.13;;;8.38;71.26
63204;BME280;49297;43.210;27.914;2024-03-08T10:06:45;101619.53;;;8.47;70.51
63204;BME280;49297;43.210;27.914;2024-03-08T10:09:14;101613.09;;;8.51;70.50
63204;BME280;49297;43.210;27.914;2024-03-08T10:11:41;101627.47;;;8.60;70.62
63204;BME280;49297;43.210;27.914;2024-03-08T10:14:07;101620.09;;;8.65;70.04
63204;BME280;49297;43.210;27.914;2024-03-08T10:16:33;101620.84;;;8.67;70.16
63204;BME280;49297;43.210;27.914;2024-03-08T10:19:00;101622.53;;;8.68;69.70
63204;BME280;49297;43.210;27.914;2024-03-08T10:21:26;101617.03;;;8.71;69.48
63204;BME280;49297;43.210;27.914;2024-03-08T10:23:51;101620.63;;;8.70;69.92
63204;BME280;49297;43.210;27.914;2024-03-08T10:26:17;101621.91;;;8.65;69.68
63204;BME280;49297;43.210;27.914;2024-03-08T10:28:45;101628.84;;;8.66;69.94
63204;BME280;49297;43.210;27.914;2024-03-08T10:31:13;101620.28;;;8.62;69.71
63204;BME280;49297;43.210;27.914;2024-03-08T10:33:41;101626.94;;;8.55;69.61
63204;BME280;49297;43.210;27.914;2024-03-08T10:36:07;101620.47;;;8.46;70.17
63204;BME280;49297;43.210;27.914;2024-03-08T10:38:38;101619.00;;;8.42;70.07
63204;BME280;49297;43.210;27.914;2024-03-08T10:41:06;101625.69;;;8.33;70.06
63204;BME280;49297;43.210;27.914;2024-03-08T10:48:54;101623.19;;;8.17;69.89
63204;BME280;49297;43.210;27.914;2024-03-08T10:51:22;101624.44;;;8.12;70.53
63204;BME280;49297;43.210;27.914;2024-03-08T10:56:19;101624.34;;;8.13;70.39
63204;BME280;49297;43.210;27.914;2024-03-08T10:58:47;101620.75;;;8.14;70.51
63204;BME280;49297;43.210;27.914;2024-03-08T11:01:13;101622.47;;;8.15;70.10
63204;BME280;49297;43.210;27.914;2024-03-08T11:06:13;101618.97;;;8.15;70.25
63204;BME280;49297;43.210;27.914;2024-03-08T11:08:40;101612.50;;;8.06;69.88
63204;BME280;49297;43.210;27.914;2024-03-08T11:11:06;101615.97;;;8.07;70.33
63204;BME280;49297;43.210;27.914;2024-03-08T11:13:49;101613.44;;;8.05;69.90
63204;BME280;49297;43.210;27.914;2024-03-08T11:21:33;101612.69;;;8.03;69.08
63204;BME280;49297;43.210;27.914;2024-03-08T11:24:02;101607.34;;;8.05;69.59
63204;BME280;49297;43.210;27.914;2024-03-08T11:26:49;101620.09;;;8.11;69.15
63204;BME280;49297;43.210;27.914;2024-03-08T11:32:17;101612.09;;;8.12;69.53
63204;BME280;49297;43.210;27.914;2024-03-08T11:34:46;101608.91;;;8.07;68.47
63204;BME280;49297;43.210;27.914;2024-03-08T11:37:16;101609.88;;;8.06;68.95
63204;BME280;49297;43.210;27.914;2024-03-08T11:39:50;101609.88;;;8.06;68.73
63204;BME280;49297;43.210;27.914;2024-03-08T11:42:16;101618.63;;;8.07;69.16
63204;BME280;49297;43.210;27.914;2024-03-08T11:44:47;101606.19;;;8.09;69.19
63204;BME280;49297;43.210;27.914;2024-03-08T11:47:13;101610.44;;;8.11;69.12
63204;BME280;49297;43.210;27.914;2024-03-08T11:49:40;101613.81;;;8.13;68.93
63204;BME280;49297;43.210;27.914;2024-03-08T11:52:13;101613.63;;;8.16;69.09
63204;BME280;49297;43.210;27.914;2024-03-08T11:54:39;101616.91;;;8.20;68.56
63204;BME280;49297;43.210;27.914;2024-03-08T11:57:05;101607.28;;;8.19;68.86
63204;BME280;49297;43.210;27.914;2024-03-08T11:59:31;101615.00;;;8.22;69.00
63204;BME280;49297;43.210;27.914;2024-03-08T12:02:02;101613.75;;;8.28;68.43
63204;BME280;49297;43.210;27.914;2024-03-08T12:04:28;101613.56;;;8.31;68.35
63204;BME280;49297;43.210;27.914;2024-03-08T12:06:54;101607.72;;;8.26;68.01
63204;BME280;49297;43.210;27.914;2024-03-08T12:09:20;101602.75;;;8.21;68.37
63204;BME280;49297;43.210;27.914;2024-03-08T12:11:48;101611.63;;;8.20;68.37
63204;BME280;49297;43.210;27.914;2024-03-08T12:14:14;101606.22;;;8.22;68.49
63204;BME280;49297;43.210;27.914;2024-03-08T12:16:41;101610.56;;;8.23;68.22
63204;BME280;49297;43.210;27.914;2024-03-08T12:19:07;101611.31;;;8.25;67.75
63204;BME280;49297;43.210;27.914;2024-03-08T12:21:41;101619.13;;;8.26;67.92
63204;BME280;49297;43.210;27.914;2024-03-08T12:24:14;101619.75;;;8.30;67.29
63204;BME280;49297;43.210;27.914;2024-03-08T12:26:41;101608.91;;;8.34;67.40
63204;BME280;49297;43.210;27.914;2024-03-08T12:29:14;101612.28;;;8.36;67.26
63204;BME280;49297;43.210;27.914;2024-03-08T12:31:42;101609.56;;;8.38;66.38
63204;BME280;49297;43.210;27.914;2024-03-08T12:34:08;101607.75;;;8.38;66.27
63204;BME280;49297;43.210;27.914;2024-03-08T12:36:35;101611.97;;;8.41;65.79
63204;BME280;49297;43.210;27.914;2024-03-08T12:39:05;101619.16;;;8.39;65.92
63204;BME280;49297;43.210;27.914;2024-03-08T12:41:31;101616.19;;;8.31;65.48
63204;BME280;49297;43.210;27.914;2024-03-08T12:43:59;101612.03;;;8.27;65.86
63204;BME280;49297;43.210;27.914;2024-03-08T12:46:24;101615.66;;;8.26;65.10
63204;BME280;49297;43.210;27.914;2024-03-08T12:48:51;101611.50;;;8.22;65.34
63204;BME280;49297;43.210;27.914;2024-03-08T12:51:19;101615.19;;;8.19;65.86
63204;BME280;49297;43.210;27.914;2024-03-08T12:53:47;101609.81;;;8.20;65.86
63204;BME280;49297;43.210;27.914;2024-03-08T12:56:19;101609.19;;;8.17;65.83
63204;BME280;49297;43.210;27.914;2024-03-08T12:58:47;101606.53;;;8.17;65.41
63204;BME280;49297;43.210;27.914;2024-03-08T13:01:12;101611.81;;;8.17;65.80
63204;BME280;49297;43.210;27.914;2024-03-08T13:03:38;101607.28;;;8.19;65.89
63204;BME280;49297;43.210;27.914;2024-03-08T13:06:06;101606.53;;;8.17;66.32
63204;BME280;49297;43.210;27.914;2024-03-08T13:08:38;101606.00;;;8.12;65.88
63204;BME280;49297;43.210;27.914;2024-03-08T13:11:07;101610.06;;;8.03;66.39
63204;BME280;49297;43.210;27.914;2024-03-08T13:13:33;101614.78;;;7.98;66.05